Time;durP1;ratioP1;P1;durP2;ratioP2;P2;SDS_P1;SDS_P2;PMS_P1;PMS_P2;Temp;Humidity;BMP_temperature;BMP_pressure;BME280_temperature;BME280_humidity;BME280_pressure;Samples;Min_cycle;Max_cycle;Signal;HPM_P1;HPM_P2
2023/08/28 00:01:12;;;;;;;0.95;0.60;;;22.80;56.80;;;;;;5126639;27;46467;-71
2023/08/28 00:03:38;;;;;;;1.40;0.80;;;22.80;57.00;;;;;;5127364;27;45345;-70
2023/08/28 00:06:05;;;;;;;0.70;0.70;;;22.80;56.90;;;;;;5127231;27;45412;-70
2023/08/28 00:08:33;;;;;;;0.90;0.55;;;22.80;57.00;;;;;;5127341;27;45362;-71
2023/08/28 00:11:00;;;;;;;0.50;0.50;;;22.80;56.90;;;;;;5127103;27;46705;-71
2023/08/28 00:13:27;;;;;;;0.77;0.77;;;22.80;56.90;;;;;;5127081;27;45315;-71
2023/08/28 00:15:54;;;;;;;0.63;0.63;;;22.80;56.90;;;;;;5127443;27;45305;-71
2023/08/28 00:18:22;;;;;;;0.93;0.70;;;22.80;56.90;;;;;;5127403;27;45353;-70
2023/08/28 00:20:48;;;;;;;0.55;0.55;;;22.80;56.80;;;;;;5127055;27;47667;-71
2023/08/28 00:23:15;;;;;;;0.88;0.88;;;22.80;56.90;;;;;;5127137;27;45304;-70
2023/08/28 00:25:43;;;;;;;0.80;0.77;;;22.80;56.90;;;;;;5127131;27;45281;-70
2023/08/28 00:28:10;;;;;;;0.77;0.60;;;22.80;56.90;;;;;;5127457;27;45386;-70
2023/08/28 00:30:37;;;;;;;0.55;0.55;;;22.80;56.90;;;;;;5126990;27;45340;-70
2023/08/28 00:33:04;;;;;;;0.60;0.60;;;22.70;56.80;;;;;;5127408;27;45299;-70
2023/08/28 00:35:31;;;;;;;0.93;0.52;;;22.70;56.90;;;;;;5126533;27;45200;-71
2023/08/28 00:37:58;;;;;;;0.60;0.60;;;22.70;56.90;;;;;;5126390;27;45220;-70
2023/08/28 00:40:25;;;;;;;0.70;0.70;;;22.70;56.90;;;;;;5126425;27;46376;-70
2023/08/28 00:42:54;;;;;;;0.80;0.80;;;22.70;56.90;;;;;;5129195;27;45392;-70
2023/08/28 00:45:21;;;;;;;1.67;0.57;;;22.70;57.50;;;;;;5130325;27;45277;-70
2023/08/28 00:47:47;;;;;;;0.60;0.60;;;22.60;56.80;;;;;;5130491;27;45382;-70
2023/08/28 00:50:14;;;;;;;2.05;0.70;;;22.60;56.90;;;;;;5127429;27;45488;-70
2023/08/28 00:52:41;;;;;;;0.75;0.70;;;22.70;56.90;;;;;;5129893;27;45252;-70
2023/08/28 00:55:09;;;;;;;0.65;0.63;;;22.70;56.90;;;;;;5130227;27;45288;-70
2023/08/28 00:57:35;;;;;;;0.70;0.70;;;22.60;56.80;;;;;;5129809;27;45296;-70
2023/08/28 01:00:06;;;;;;;0.80;0.80;;;22.70;56.90;;;;;;5130068;27;47261;-70
2023/08/28 01:02:33;;;;;;;0.52;0.52;;;22.60;56.80;;;;;;5129977;27;45138;-71
2023/08/28 01:05:00;;;;;;;0.80;0.80;;;22.60;56.70;;;;;;5130373;27;45251;-71
2023/08/28 01:07:29;;;;;;;0.82;0.70;;;22.60;56.80;;;;;;5130075;27;45458;-70
2023/08/28 01:10:02;;;;;;;0.60;0.60;;;22.60;56.90;;;;;;5129926;27;45354;-71
2023/08/28 01:12:34;;;;;;;0.70;0.70;;;22.60;56.80;;;;;;5129874;27;45392;-72
2023/08/28 01:15:06;;;;;;;0.60;0.60;;;22.60;56.70;;;;;;5130092;27;45182;-71
2023/08/28 01:17:33;;;;;;;0.60;0.60;;;22.60;56.80;;;;;;5130075;27;45191;-72
2023/08/28 01:20:00;;;;;;;0.50;0.50;;;22.60;56.70;;;;;;5129486;27;47273;-72
2023/08/28 01:22:29;;;;;;;0.68;0.68;;;22.60;56.80;;;;;;5129717;27;45247;-70
2023/08/28 01:25:04;;;;;;;0.60;0.60;;;22.60;56.80;;;;;;5129861;27;45392;-69
2023/08/28 01:27:31;;;;;;;0.75;0.60;;;22.60;57.00;;;;;;5129895;27;45610;-70
2023/08/28 01:30:11;;;;;;;0.85;0.80;;;22.60;56.80;;;;;;5128904;27;45583;-70
2023/08/28 01:32:38;;;;;;;0.60;0.60;;;22.60;56.80;;;;;;5129024;27;45441;-69
2023/08/28 01:35:07;;;;;;;0.60;0.60;;;22.60;56.70;;;;;;5129429;27;45300;-70
2023/08/28 01:37:40;;;;;;;0.50;0.50;;;22.50;56.60;;;;;;5129722;27;45276;-70
2023/08/28 01:40:09;;;;;;;0.70;0.70;;;22.60;56.70;;;;;;5129345;27;46347;-70
2023/08/28 01:42:36;;;;;;;0.90;0.50;;;22.60;56.70;;;;;;5129572;27;45283;-70
2023/08/28 01:45:03;;;;;;;0.57;0.57;;;22.60;56.60;;;;;;5129946;27;45270;-70
2023/08/28 01:47:30;;;;;;;0.70;0.70;;;22.50;56.70;;;;;;5129583;27;45450;-70
2023/08/28 01:49:58;;;;;;;0.65;0.65;;;22.60;56.70;;;;;;5129367;27;45484;-70
2023/08/28 01:52:25;;;;;;;0.60;0.60;;;22.50;56.60;;;;;;5129426;27;45321;-70
2023/08/28 01:54:51;;;;;;;0.60;0.60;;;22.50;56.60;;;;;;5128437;27;45208;-70
2023/08/28 01:57:20;;;;;;;0.95;0.50;;;22.50;56.60;;;;;;5129254;27;45329;-70
2023/08/28 01:59:47;;;;;;;0.73;0.70;;;22.50;56.60;;;;;;5129088;27;46714;-70
2023/08/28 02:02:13;;;;;;;0.63;0.63;;;22.50;56.70;;;;;;5126402;27;45333;-69
2023/08/28 02:04:40;;;;;;;0.50;0.50;;;22.50;56.60;;;;;;5129294;27;45348;-70
2023/08/28 02:07:07;;;;;;;0.60;0.60;;;22.50;56.60;;;;;;5129225;27;45320;-70
2023/08/28 02:09:34;;;;;;;0.60;0.60;;;22.50;56.60;;;;;;5128957;27;45328;-71
2023/08/28 02:12:01;;;;;;;0.55;0.55;;;22.50;56.60;;;;;;5128904;27;45388;-70
2023/08/28 02:14:29;;;;;;;0.50;0.50;;;22.50;56.60;;;;;;5128974;27;45288;-70
2023/08/28 02:16:56;;;;;;;0.95;0.60;;;22.50;56.60;;;;;;5129150;27;45323;-70
2023/08/28 02:19:23;;;;;;;0.73;0.60;;;22.50;56.60;;;;;;5128248;27;46738;-70
2023/08/28 02:21:50;;;;;;;0.50;0.50;;;22.50;56.70;;;;;;5128348;27;45230;-70
2023/08/28 02:24:16;;;;;;;0.75;0.73;;;22.50;56.60;;;;;;5128893;27;45358;-70
2023/08/28 02:26:43;;;;;;;0.68;0.68;;;22.40;56.70;;;;;;5129138;27;45442;-71
2023/08/28 02:29:10;;;;;;;0.77;0.60;;;22.40;56.60;;;;;;5128774;27;45627;-69
2023/08/28 02:31:38;;;;;;;0.73;0.70;;;22.40;56.70;;;;;;5128637;27;45255;-70
2023/08/28 02:34:06;;;;;;;1.55;0.40;;;22.40;56.70;;;;;;5128600;27;45273;-70
2023/08/28 02:36:32;;;;;;;0.43;0.43;;;22.40;56.70;;;;;;5128787;27;45468;-70
2023/08/28 02:38:59;;;;;;;1.38;0.60;;;22.40;56.70;;;;;;5128536;27;45892;-70
2023/08/28 02:41:26;;;;;;;0.50;0.50;;;22.40;56.70;;;;;;5128679;27;45387;-70
2023/08/28 02:43:53;;;;;;;0.63;0.63;;;22.40;56.70;;;;;;5128720;27;45196;-70
2023/08/28 02:46:20;;;;;;;0.85;0.60;;;22.40;56.60;;;;;;5128525;27;45478;-70
2023/08/28 02:48:48;;;;;;;0.93;0.63;;;22.40;56.60;;;;;;5128264;27;45410;-70
2023/08/28 02:51:15;;;;;;;1.27;0.70;;;22.40;56.70;;;;;;5128450;27;45259;-69
2023/08/28 02:53:41;;;;;;;0.73;0.63;;;22.40;56.70;;;;;;5128453;27;45311;-70
2023/08/28 02:56:24;;;;;;;0.55;0.52;;;22.40;56.60;;;;;;5128242;27;45415;-70
2023/08/28 02:58:51;;;;;;;0.50;0.50;;;22.40;56.60;;;;;;5128209;27;45607;-70
2023/08/28 03:01:18;;;;;;;0.60;0.60;;;22.40;56.70;;;;;;5128312;27;45402;-69
2023/08/28 03:03:45;;;;;;;1.08;0.50;;;22.40;56.60;;;;;;5128383;27;45315;-70
2023/08/28 03:06:14;;;;;;;0.50;0.50;;;22.40;56.60;;;;;;5127919;27;45516;-69
2023/08/28 03:08:40;;;;;;;1.45;0.55;;;22.30;56.50;;;;;;5127092;27;45378;-69
2023/08/28 03:11:07;;;;;;;0.60;0.60;;;22.30;56.50;;;;;;5128057;27;45376;-70
2023/08/28 03:13:34;;;;;;;1.05;0.70;;;22.30;56.60;;;;;;5128105;27;45278;-69
2023/08/28 03:16:02;;;;;;;0.60;0.60;;;22.30;56.60;;;;;;5127946;27;45235;-70
2023/08/28 03:18:29;;;;;;;0.63;0.60;;;22.30;56.60;;;;;;5127787;27;46737;-69
2023/08/28 03:20:55;;;;;;;0.40;0.40;;;22.30;56.60;;;;;;5127940;27;45267;-70
2023/08/28 03:23:24;;;;;;;0.60;0.60;;;22.30;57.30;;;;;;5127923;27;45505;-70
2023/08/28 03:25:51;;;;;;;0.73;0.73;;;22.30;56.60;;;;;;5127991;27;45422;-70
2023/08/28 03:28:18;;;;;;;0.57;0.57;;;22.30;56.60;;;;;;5127758;27;46336;-70
2023/08/28 03:30:45;;;;;;;0.68;0.57;;;22.30;56.60;;;;;;5127583;27;45252;-70
2023/08/28 03:33:12;;;;;;;1.02;0.70;;;22.30;56.60;;;;;;5127778;27;45272;-70
2023/08/28 03:35:38;;;;;;;0.68;0.68;;;22.30;56.60;;;;;;5127998;27;45248;-70
2023/08/28 03:38:05;;;;;;;0.73;0.68;;;22.30;56.60;;;;;;5127583;27;45416;-70
2023/08/28 03:40:35;;;;;;;0.50;0.50;;;22.30;56.60;;;;;;5127568;27;45368;-70
2023/08/28 03:43:03;;;;;;;0.70;0.70;;;22.20;56.50;;;;;;5127775;27;45260;-70
2023/08/28 03:45:30;;;;;;;0.60;0.50;;;22.30;57.30;;;;;;5127856;27;45290;-70
2023/08/28 03:47:57;;;;;;;0.65;0.60;;;22.30;56.60;;;;;;5127470;27;46376;-70
2023/08/28 03:50:24;;;;;;;0.55;0.55;;;22.30;56.60;;;;;;5127486;27;45353;-71
2023/08/28 03:52:51;;;;;;;0.70;0.55;;;22.30;56.70;;;;;;5126927;27;45402;-70
2023/08/28 03:55:18;;;;;;;1.95;0.50;;;22.30;56.60;;;;;;5127399;27;45251;-70
2023/08/28 03:57:46;;;;;;;0.40;0.40;;;22.20;56.60;;;;;;5126957;27;46442;-71
2023/08/28 04:00:14;;;;;;;0.70;0.70;;;22.20;56.70;;;;;;5127199;27;45422;-71
2023/08/28 04:02:42;;;;;;;0.60;0.60;;;22.20;56.90;;;;;;5127542;27;45388;-70
2023/08/28 04:05:09;;;;;;;0.80;0.77;;;22.20;56.60;;;;;;5127623;27;45349;-70
2023/08/28 04:07:35;;;;;;;1.42;0.70;;;22.20;56.50;;;;;;5127160;27;46279;-70
2023/08/28 04:10:02;;;;;;;1.33;0.63;;;22.20;56.40;;;;;;5127049;27;45413;-71
2023/08/28 04:12:29;;;;;;;1.00;0.50;;;22.20;56.40;;;;;;5127578;27;45428;-70
2023/08/28 04:14:58;;;;;;;0.50;0.50;;;22.20;56.40;;;;;;5127426;27;45306;-71
2023/08/28 04:17:25;;;;;;;0.60;0.60;;;22.20;56.50;;;;;;5128716;27;45509;-70
2023/08/28 04:19:52;;;;;;;0.80;0.80;;;22.20;56.40;;;;;;5130784;27;45382;-70
2023/08/28 04:22:20;;;;;;;0.77;0.75;;;22.20;57.10;;;;;;5130965;27;45409;-70
2023/08/28 04:24:47;;;;;;;0.60;0.60;;;22.20;56.50;;;;;;5131014;27;45413;-70
2023/08/28 04:27:13;;;;;;;0.63;0.63;;;22.20;56.50;;;;;;5130446;27;45190;-71
2023/08/28 04:29:40;;;;;;;0.88;0.65;;;22.10;56.50;;;;;;5130806;27;45387;-70
2023/08/28 04:32:09;;;;;;;0.52;0.52;;;22.20;56.50;;;;;;5130650;27;45337;-71
2023/08/28 04:34:36;;;;;;;0.50;0.50;;;22.10;56.40;;;;;;5130539;27;45260;-70
2023/08/28 04:37:03;;;;;;;0.45;0.45;;;22.10;56.50;;;;;;5129846;27;45461;-69
2023/08/28 04:39:30;;;;;;;0.70;0.70;;;22.10;56.50;;;;;;5129797;27;45447;-70
2023/08/28 04:41:57;;;;;;;0.68;0.68;;;22.10;56.40;;;;;;5130571;27;45336;-70
2023/08/28 04:44:24;;;;;;;1.13;0.50;;;22.10;56.50;;;;;;5130925;27;45341;-71
2023/08/28 04:46:50;;;;;;;0.77;0.60;;;22.10;56.50;;;;;;5130194;27;46394;-70
2023/08/28 04:49:19;;;;;;;1.40;0.55;;;22.10;56.50;;;;;;5130398;27;45314;-71
2023/08/28 04:51:45;;;;;;;0.88;0.65;;;22.10;56.50;;;;;;5130340;27;45394;-70
2023/08/28 04:54:12;;;;;;;0.60;0.60;;;22.10;56.40;;;;;;5130464;27;45394;-70
2023/08/28 04:56:39;;;;;;;0.70;0.70;;;22.10;56.60;;;;;;5129600;27;46400;-71
2023/08/28 04:59:06;;;;;;;0.60;0.60;;;22.10;56.50;;;;;;5130083;27;45302;-71
2023/08/28 05:01:33;;;;;;;0.70;0.50;;;22.10;56.50;;;;;;5130143;27;45142;-70
2023/08/28 05:04:00;;;;;;;0.63;0.55;;;22.10;56.50;;;;;;5130288;27;45363;-70
2023/08/28 05:06:28;;;;;;;0.85;0.60;;;22.10;56.50;;;;;;5129990;27;45386;-70
2023/08/28 05:08:55;;;;;;;0.80;0.80;;;22.00;56.60;;;;;;5129992;27;45356;-69
2023/08/28 05:11:22;;;;;;;0.70;0.70;;;22.00;56.50;;;;;;5130129;27;45314;-69
2023/08/28 05:13:49;;;;;;;0.80;0.70;;;22.00;56.50;;;;;;5130184;27;45189;-69
2023/08/28 05:16:16;;;;;;;0.52;0.52;;;22.00;56.50;;;;;;5129568;27;45515;-69
2023/08/28 05:18:42;;;;;;;0.63;0.63;;;22.00;56.50;;;;;;5129835;27;45300;-69
2023/08/28 05:21:09;;;;;;;0.50;0.50;;;22.00;56.50;;;;;;5129221;27;45314;-70
2023/08/28 05:23:37;;;;;;;0.45;0.45;;;22.00;56.40;;;;;;5129854;27;45478;-69
2023/08/28 05:26:04;;;;;;;1.02;0.60;;;22.00;56.40;;;;;;5129227;27;46432;-70
2023/08/28 05:28:35;;;;;;;0.75;0.70;;;22.00;57.00;;;;;;5129394;27;45362;-69
2023/08/28 05:31:01;;;;;;;0.82;0.70;;;22.00;56.50;;;;;;5129679;27;45340;-70
2023/08/28 05:33:28;;;;;;;1.80;0.60;;;22.00;56.40;;;;;;5129926;27;45386;-70
2023/08/28 05:35:55;;;;;;;0.60;0.60;;;22.00;56.40;;;;;;5129418;27;45325;-70
2023/08/28 05:38:22;;;;;;;0.70;0.55;;;22.00;56.30;;;;;;5129535;27;45369;-69
2023/08/28 05:40:50;;;;;;;0.88;0.57;;;22.00;56.40;;;;;;5129578;27;45294;-69
2023/08/28 05:43:17;;;;;;;0.50;0.50;;;22.00;56.50;;;;;;5129657;27;45363;-70
2023/08/28 05:45:45;;;;;;;0.60;0.60;;;22.00;56.40;;;;;;5128925;27;45250;-69
2023/08/28 05:48:12;;;;;;;0.73;0.60;;;22.00;57.00;;;;;;5129353;27;45312;-69
2023/08/28 05:50:39;;;;;;;0.60;0.60;;;22.00;56.50;;;;;;5129709;27;45360;-70
2023/08/28 05:53:06;;;;;;;0.60;0.60;;;22.00;56.40;;;;;;5129493;27;45319;-69
2023/08/28 05:55:33;;;;;;;1.05;0.70;;;22.00;56.40;;;;;;5128834;27;46401;-71
2023/08/28 05:58:01;;;;;;;0.63;0.55;;;22.00;56.40;;;;;;5129590;27;45200;-70
2023/08/28 06:00:29;;;;;;;0.50;0.50;;;22.00;56.40;;;;;;5129311;27;45332;-70
2023/08/28 06:02:56;;;;;;;1.73;0.80;;;22.00;56.40;;;;;;5129600;27;45453;-70
2023/08/28 06:05:23;;;;;;;0.88;0.70;;;22.00;56.40;;;;;;5128878;27;45381;-70
2023/08/28 06:07:50;;;;;;;0.57;0.57;;;22.00;56.40;;;;;;5128453;27;45298;-70
2023/08/28 06:10:19;;;;;;;1.23;0.65;;;21.90;56.20;;;;;;5129319;27;45361;-70
2023/08/28 06:12:46;;;;;;;0.50;0.50;;;22.00;56.40;;;;;;5129358;27;45594;-70
2023/08/28 06:15:15;;;;;;;0.60;0.60;;;22.00;56.40;;;;;;5128730;27;45307;-70
2023/08/28 06:17:42;;;;;;;0.70;0.70;;;22.00;56.40;;;;;;5128857;27;45434;-70
2023/08/28 06:20:10;;;;;;;0.52;0.52;;;22.00;56.30;;;;;;5129135;27;45389;-71
2023/08/28 06:22:38;;;;;;;0.57;0.57;;;21.90;56.20;;;;;;5129075;27;45424;-70
2023/08/28 06:25:05;;;;;;;0.65;0.63;;;21.90;56.20;;;;;;5128636;27;46578;-70
2023/08/28 06:27:31;;;;;;;0.52;0.52;;;21.90;56.20;;;;;;5128615;27;45345;-70
2023/08/28 06:29:58;;;;;;;0.50;0.50;;;21.90;56.20;;;;;;5128856;27;45333;-71
2023/08/28 06:32:26;;;;;;;1.10;0.73;;;21.90;56.30;;;;;;5128829;27;45355;-71
2023/08/28 06:34:53;;;;;;;0.60;0.60;;;21.90;56.30;;;;;;5128601;27;45381;-70
2023/08/28 06:37:20;;;;;;;0.65;0.50;;;21.90;56.30;;;;;;5128438;27;45328;-70
2023/08/28 06:39:46;;;;;;;0.70;0.63;;;21.90;56.30;;;;;;5128133;27;45533;-70
2023/08/28 06:42:13;;;;;;;0.77;0.60;;;21.90;56.20;;;;;;5128813;27;45482;-69
2023/08/28 06:44:40;;;;;;;0.50;0.50;;;21.90;56.30;;;;;;5128398;27;46419;-70
2023/08/28 06:47:07;;;;;;;0.68;0.68;;;21.90;56.40;;;;;;5128496;27;44723;-71
2023/08/28 06:49:34;;;;;;;0.50;0.50;;;21.90;56.30;;;;;;5128482;27;45293;-69
2023/08/28 06:52:01;;;;;;;0.63;0.63;;;21.90;56.30;;;;;;5128122;27;45250;-69
2023/08/28 06:54:28;;;;;;;0.60;0.60;;;21.90;56.20;;;;;;5128069;27;46640;-70
2023/08/28 06:56:55;;;;;;;0.60;0.60;;;21.90;56.10;;;;;;5127872;27;45404;-70
2023/08/28 06:59:21;;;;;;;0.57;0.57;;;21.90;56.20;;;;;;5128569;27;45407;-70
2023/08/28 07:01:48;;;;;;;0.43;0.43;;;21.90;56.20;;;;;;5128750;27;45306;-70
2023/08/28 07:04:15;;;;;;;0.40;0.40;;;21.90;56.10;;;;;;5128177;27;47565;-70
2023/08/28 07:06:43;;;;;;;0.77;0.40;;;21.90;56.90;;;;;;5127992;27;45331;-70
2023/08/28 07:09:10;;;;;;;0.60;0.60;;;21.90;56.20;;;;;;5128555;27;45417;-70
2023/08/28 07:11:37;;;;;;;0.50;0.50;;;21.90;56.20;;;;;;5128381;27;45417;-70
2023/08/28 07:14:06;;;;;;;0.50;0.50;;;21.90;56.20;;;;;;5127639;27;46383;-70
2023/08/28 07:16:33;;;;;;;0.73;0.70;;;21.90;56.10;;;;;;5128145;27;45392;-70
2023/08/28 07:19:00;;;;;;;1.33;0.52;;;21.90;56.10;;;;;;5128412;27;45295;-70
2023/08/28 07:21:27;;;;;;;0.50;0.50;;;21.90;56.10;;;;;;5128502;27;45326;-70
2023/08/28 07:23:55;;;;;;;0.65;0.65;;;21.90;56.10;;;;;;5128476;27;45361;-70
2023/08/28 07:26:22;;;;;;;0.80;0.60;;;21.90;56.10;;;;;;5127809;27;45439;-70
2023/08/28 07:28:49;;;;;;;0.95;0.47;;;21.90;56.00;;;;;;5128033;27;45399;-70
2023/08/28 07:31:16;;;;;;;0.55;0.55;;;21.90;56.20;;;;;;5128081;27;45373;-70
2023/08/28 07:33:43;;;;;;;0.93;0.60;;;21.90;56.20;;;;;;5127677;27;45442;-70
2023/08/28 07:36:09;;;;;;;0.60;0.60;;;21.90;56.10;;;;;;5126664;27;45422;-70
2023/08/28 07:38:36;;;;;;;0.63;0.63;;;21.90;56.10;;;;;;5127589;27;45263;-70
2023/08/28 07:41:05;;;;;;;0.52;0.52;;;21.90;56.10;;;;;;5127731;27;45286;-71
2023/08/28 07:43:31;;;;;;;0.43;0.43;;;21.90;56.10;;;;;;5127234;27;46398;-70
2023/08/28 07:45:58;;;;;;;0.90;0.60;;;22.00;56.00;;;;;;5127268;27;45125;-71
2023/08/28 07:48:25;;;;;;;0.60;0.60;;;21.90;56.10;;;;;;5127712;27;45183;-70
2023/08/28 07:50:52;;;;;;;0.52;0.52;;;22.00;56.00;;;;;;5127758;27;45377;-69
2023/08/28 07:53:20;;;;;;;0.50;0.50;;;21.90;56.00;;;;;;5130650;27;45272;-69
2023/08/28 07:55:47;;;;;;;0.60;0.60;;;21.90;56.10;;;;;;5131118;27;45372;-70
2023/08/28 07:58:15;;;;;;;0.50;0.50;;;21.90;56.20;;;;;;5131531;27;45279;-70
2023/08/28 08:00:43;;;;;;;0.40;0.40;;;21.90;56.20;;;;;;5131403;27;45396;-70
2023/08/28 08:03:10;;;;;;;0.65;0.65;;;21.90;56.30;;;;;;5131197;27;46332;-71
2023/08/28 08:05:36;;;;;;;0.60;0.60;;;21.90;56.10;;;;;;5130914;27;45399;-71
2023/08/28 08:08:04;;;;;;;0.70;0.70;;;21.90;56.20;;;;;;5131726;27;45317;-69
2023/08/28 08:10:32;;;;;;;0.57;0.57;;;21.90;56.20;;;;;;5131239;27;45210;-70
2023/08/28 08:12:58;;;;;;;1.20;0.50;;;21.90;56.20;;;;;;5131158;27;47605;-71
2023/08/28 08:15:26;;;;;;;0.63;0.52;;;21.90;56.10;;;;;;5130648;27;45466;-70
2023/08/28 08:17:53;;;;;;;0.40;0.40;;;21.90;56.10;;;;;;5131118;27;45297;-71
2023/08/28 08:20:20;;;;;;;0.50;0.50;;;21.90;56.20;;;;;;5130600;27;45477;-70
2023/08/28 08:22:47;;;;;;;0.60;0.60;;;21.90;56.20;;;;;;5130999;27;47277;-70
2023/08/28 08:25:14;;;;;;;1.08;0.65;;;21.90;56.20;;;;;;5130700;27;45326;-70
2023/08/28 08:27:44;;;;;;;0.50;0.50;;;21.90;56.20;;;;;;5130942;27;45412;-71
2023/08/28 08:30:13;;;;;;;0.65;0.63;;;21.90;56.20;;;;;;5131653;27;45205;-70
2023/08/28 08:32:43;;;;;;;0.52;0.52;;;21.90;56.20;;;;;;5130563;27;45924;-71
2023/08/28 08:35:11;;;;;;;1.50;0.70;;;21.90;56.10;;;;;;5130228;27;45146;-70
2023/08/28 08:37:39;;;;;;;0.65;0.60;;;21.90;56.20;;;;;;5130868;27;45346;-70
2023/08/28 08:40:09;;;;;;;0.63;0.63;;;21.90;56.30;;;;;;5131251;27;45378;-71
2023/08/28 08:42:36;;;;;;;0.73;0.73;;;21.90;56.10;;;;;;5131338;27;45279;-72
2023/08/28 08:45:03;;;;;;;0.55;0.55;;;21.90;56.20;;;;;;5131123;27;45386;-71
2023/08/28 08:47:30;;;;;;;0.93;0.70;;;21.90;56.10;;;;;;5130490;27;45314;-69
2023/08/28 08:49:59;;;;;;;0.57;0.57;;;21.90;56.30;;;;;;5130491;27;45378;-71
2023/08/28 08:52:25;;;;;;;0.65;0.63;;;21.90;56.40;;;;;;5130497;27;45528;-70
2023/08/28 08:54:55;;;;;;;2.38;0.88;;;21.90;56.40;;;;;;5130202;27;45287;-71
2023/08/28 08:57:26;;;;;;;0.50;0.50;;;21.90;56.30;;;;;;5130124;27;45428;-71
2023/08/28 08:59:53;;;;;;;0.63;0.63;;;21.90;56.30;;;;;;5130857;27;45337;-70
2023/08/28 09:02:21;;;;;;;2.08;1.00;;;21.90;56.40;;;;;;5129934;27;46280;-71
2023/08/28 09:04:48;;;;;;;0.55;0.50;;;21.90;56.40;;;;;;5130233;27;45407;-70
2023/08/28 09:07:18;;;;;;;2.05;0.80;;;21.90;56.30;;;;;;5129927;27;45386;-70
2023/08/28 09:09:45;;;;;;;0.75;0.70;;;21.90;56.40;;;;;;5129637;27;45327;-70
2023/08/28 09:12:13;;;;;;;0.98;0.73;;;21.90;56.30;;;;;;5129575;27;45359;-70
2023/08/28 09:14:40;;;;;;;0.80;0.80;;;21.90;56.50;;;;;;5130004;27;45256;-71
2023/08/28 09:17:07;;;;;;;1.23;0.63;;;21.90;56.40;;;;;;5130039;27;45320;-70
2023/08/28 09:19:35;;;;;;;2.65;0.60;;;21.90;56.30;;;;;;5130509;27;45497;-71
2023/08/28 09:22:03;;;;;;;1.75;0.93;;;21.90;56.40;;;;;;5127761;27;46127;-70
2023/08/28 09:24:31;;;;;;;0.77;0.65;;;21.90;56.50;;;;;;5124934;27;45459;-70
2023/08/28 09:26:58;;;;;;;2.75;0.75;;;21.90;56.40;;;;;;5129713;27;45420;-72
2023/08/28 09:29:25;;;;;;;1.52;0.75;;;21.90;56.40;;;;;;5130169;27;45369;-71
2023/08/28 09:31:52;;;;;;;2.53;0.88;;;21.90;56.30;;;;;;5129584;27;46922;-70
2023/08/28 09:34:19;;;;;;;2.08;0.80;;;21.90;56.30;;;;;;5130091;27;45353;-70
2023/08/28 09:36:46;;;;;;;2.05;0.70;;;22.00;56.30;;;;;;5129854;27;45283;-70
2023/08/28 09:39:13;;;;;;;0.70;0.70;;;22.00;56.30;;;;;;5130022;27;45327;-70
2023/08/28 09:41:42;;;;;;;2.45;0.63;;;22.00;56.30;;;;;;5129552;27;45392;-70
2023/08/28 09:44:09;;;;;;;0.70;0.70;;;22.00;56.20;;;;;;5129921;27;45255;-70
2023/08/28 09:46:36;;;;;;;1.10;0.80;;;22.00;56.30;;;;;;5129604;27;45265;-70
2023/08/28 09:49:03;;;;;;;0.55;0.55;;;22.00;56.00;;;;;;5129779;27;45320;-71
2023/08/28 09:51:39;;;;;;;1.25;0.75;;;22.00;56.20;;;;;;5129182;27;45240;-71
2023/08/28 09:54:06;;;;;;;0.77;0.77;;;22.00;56.20;;;;;;5129416;27;45312;-70
2023/08/28 09:56:33;;;;;;;2.42;0.80;;;22.00;56.20;;;;;;5128804;27;45400;-71
2023/08/28 09:59:01;;;;;;;1.63;0.68;;;22.00;56.10;;;;;;5128962;27;45331;-70
2023/08/28 10:01:30;;;;;;;0.60;0.60;;;22.10;56.10;;;;;;5128986;27;45203;-70
2023/08/28 10:03:57;;;;;;;0.73;0.60;;;22.10;56.00;;;;;;5129189;27;45307;-70
2023/08/28 10:06:24;;;;;;;2.45;0.82;;;22.10;56.00;;;;;;5129559;27;45411;-70
2023/08/28 10:08:50;;;;;;;1.88;0.90;;;22.10;56.00;;;;;;5129291;27;45414;-71
2023/08/28 10:11:17;;;;;;;2.83;0.90;;;22.10;55.90;;;;;;5128978;27;45184;-71
2023/08/28 10:13:44;;;;;;;0.60;0.60;;;22.10;55.90;;;;;;5128617;27;45448;-71
2023/08/28 10:16:12;;;;;;;1.58;0.85;;;22.10;56.00;;;;;;5128635;27;45355;-71
2023/08/28 10:18:40;;;;;;;0.90;0.50;;;22.10;55.90;;;;;;5129338;27;45178;-71
2023/08/28 10:21:07;;;;;;;1.13;0.70;;;22.10;55.90;;;;;;5128947;27;46753;-70
2023/08/28 10:23:34;;;;;;;0.82;0.82;;;22.20;56.00;;;;;;5128831;27;45270;-71
2023/08/28 10:26:02;;;;;;;0.70;0.65;;;22.20;56.00;;;;;;5129033;27;45320;-71
2023/08/28 10:28:29;;;;;;;2.38;1.05;;;22.10;56.00;;;;;;5129138;27;45462;-71
2023/08/28 10:30:57;;;;;;;0.60;0.60;;;22.10;56.10;;;;;;5128543;27;45396;-71
2023/08/28 10:33:26;;;;;;;0.73;0.73;;;22.20;56.00;;;;;;5128861;27;45313;-70
2023/08/28 10:35:53;;;;;;;0.60;0.60;;;22.10;56.00;;;;;;5128627;27;45385;-71
2023/08/28 10:38:21;;;;;;;0.65;0.65;;;22.20;56.10;;;;;;5129128;27;45371;-71
2023/08/28 10:40:48;;;;;;;0.80;0.77;;;22.20;56.10;;;;;;5128369;27;45320;-70
2023/08/28 10:43:14;;;;;;;0.85;0.85;;;22.10;56.00;;;;;;5127943;27;45389;-70
2023/08/28 10:45:41;;;;;;;1.25;0.80;;;22.20;56.10;;;;;;5128641;27;45224;-71
2023/08/28 10:48:08;;;;;;;3.42;1.00;;;22.20;56.10;;;;;;5128928;27;45493;-70
2023/08/28 10:50:37;;;;;;;0.60;0.60;;;22.20;56.00;;;;;;5128342;27;45311;-71
2023/08/28 10:53:04;;;;;;;0.73;0.55;;;22.20;56.10;;;;;;5128438;27;45248;-70
2023/08/28 10:55:31;;;;;;;1.88;0.70;;;22.20;56.00;;;;;;5128555;27;45302;-71
2023/08/28 10:58:01;;;;;;;0.77;0.77;;;22.20;56.00;;;;;;5129803;27;44793;-71
2023/08/28 11:00:29;;;;;;;0.77;0.70;;;22.20;56.40;;;;;;5128537;27;46969;-71
2023/08/28 11:03:06;;;;;;;0.80;0.80;;;22.20;55.90;;;;;;5128445;27;45326;-71
2023/08/28 11:05:34;;;;;;;1.55;0.60;;;22.20;56.00;;;;;;5128478;27;45362;-71
2023/08/28 11:08:04;;;;;;;1.40;0.88;;;22.20;55.90;;;;;;5128480;27;45263;-72
2023/08/28 11:10:31;;;;;;;0.93;0.80;;;22.20;56.10;;;;;;5121197;27;46697;-70
2023/08/28 11:13:02;;;;;;;1.40;0.80;;;22.20;56.00;;;;;;5130715;27;45381;-70
2023/08/28 11:15:30;;;;;;;1.42;0.90;;;22.20;56.10;;;;;;5127093;27;45455;-70
2023/08/28 11:18:33;;;;;;;1.00;0.90;;;22.10;56.10;;;;;;5128934;27;45493;-71
2023/08/28 11:21:01;;;;;;;2.00;0.85;;;22.10;56.20;;;;;;5109208;27;45470;-71
2023/08/28 11:23:33;;;;;;;1.10;0.77;;;22.10;56.20;;;;;;5110481;27;45460;-71
2023/08/28 11:26:04;;;;;;;2.38;0.95;;;22.20;56.20;;;;;;5122231;27;45487;-71
2023/08/28 11:28:32;;;;;;;1.00;0.90;;;22.20;56.10;;;;;;5115373;27;45231;-70
2023/08/28 11:31:08;;;;;;;1.52;0.80;;;22.20;56.20;;;;;;5124780;27;45481;-70
2023/08/28 11:33:38;;;;;;;0.90;0.90;;;22.20;56.20;;;;;;5127210;27;45459;-70
2023/08/28 11:36:06;;;;;;;0.70;0.70;;;22.20;56.20;;;;;;5127592;27;45265;-70
2023/08/28 11:38:35;;;;;;;0.77;0.77;;;22.20;56.30;;;;;;5120802;27;45235;-71
2023/08/28 11:41:04;;;;;;;0.95;0.85;;;22.20;56.20;;;;;;5113284;27;45484;-71
2023/08/28 11:43:35;;;;;;;1.52;0.80;;;22.20;56.20;;;;;;5124028;27;45343;-70
2023/08/28 11:46:03;;;;;;;1.20;1.00;;;22.20;56.10;;;;;;5124450;27;45463;-70
2023/08/28 11:48:33;;;;;;;1.10;0.80;;;22.20;56.10;;;;;;5115819;27;45371;-70
2023/08/28 11:51:01;;;;;;;0.90;0.90;;;22.20;56.10;;;;;;5119549;27;45414;-69
2023/08/28 11:53:32;;;;;;;0.93;0.90;;;22.20;56.10;;;;;;5122578;27;45501;-71
2023/08/28 11:56:01;;;;;;;1.67;0.90;;;22.20;56.10;;;;;;5109650;27;45268;-70
2023/08/28 11:58:30;;;;;;;1.77;0.85;;;22.30;56.10;;;;;;5111021;27;45568;-69
2023/08/28 12:00:57;;;;;;;2.33;0.73;;;22.30;56.00;;;;;;5127206;27;46307;-69
2023/08/28 12:03:24;;;;;;;2.33;0.88;;;22.30;56.00;;;;;;5127567;27;45295;-70
2023/08/28 12:05:51;;;;;;;8.20;1.42;;;22.30;56.00;;;;;;5123684;27;45499;-70
2023/08/28 12:08:19;;;;;;;7.75;1.17;;;22.30;56.80;;;;;;5118369;27;45293;-71
2023/08/28 12:10:45;;;;;;;8.07;1.10;;;22.30;56.80;;;;;;5110704;27;45492;-70
2023/08/28 12:13:19;;;;;;;8.63;1.30;;;22.40;57.50;;;;;;5115828;27;45407;-71
2023/08/28 12:15:46;;;;;;;8.30;1.75;;;22.50;57.40;;;;;;5122676;27;45651;-72
2023/08/28 12:18:13;;;;;;;4.80;1.20;;;22.50;57.10;;;;;;5126060;27;45130;-72
2023/08/28 12:20:40;;;;;;;2.70;1.50;;;22.50;56.80;;;;;;5117782;27;46374;-72
2023/08/28 12:23:07;;;;;;;2.90;1.05;;;22.60;56.70;;;;;;5127967;27;45516;-70
2023/08/28 12:25:34;;;;;;;2.75;1.45;;;22.60;56.50;;;;;;5120095;27;45374;-70
2023/08/28 12:28:06;;;;;;;4.15;1.50;;;22.70;56.60;;;;;;5126688;27;45523;-71
2023/08/28 12:30:34;;;;;;;2.92;1.10;;;22.70;56.40;;;;;;5116969;27;47361;-70
2023/08/28 12:33:02;;;;;;;6.20;2.70;;;22.80;56.70;;;;;;5117138;27;45490;-72
2023/08/28 12:35:29;;;;;;;6.82;2.03;;;22.80;56.50;;;;;;5116843;27;45433;-72
2023/08/28 12:37:56;;;;;;;7.28;2.00;;;22.80;56.60;;;;;;5122722;27;45351;-74
2023/08/28 12:40:23;;;;;;;2.28;1.63;;;22.80;56.60;;;;;;5128261;27;45393;-72
2023/08/28 12:42:58;;;;;;;2.72;1.95;;;22.90;56.80;;;;;;5126482;27;45396;-73
2023/08/28 12:45:25;;;;;;;5.97;2.50;;;22.80;56.50;;;;;;5120154;27;45422;-75
2023/08/28 12:47:53;;;;;;;4.43;1.98;;;22.80;56.60;;;;;;5126181;27;45189;-71
2023/08/28 12:50:20;;;;;;;6.28;2.00;;;22.70;56.60;;;;;;5123900;27;45332;-74